createdAt,value
2018-02-09T00:00:05.323Z,13.73
2018-02-09T00:02:32.742Z,12.87
2018-02-09T00:05:00.605Z,12.07
2018-02-09T00:07:28.225Z,12.73
2018-02-09T00:09:55.700Z,12.90
2018-02-09T00:12:23.428Z,11.60
2018-02-09T00:14:50.732Z,12.43
2018-02-09T00:17:18.376Z,11.87
2018-02-09T00:19:45.728Z,12.40
2018-02-09T00:22:13.270Z,11.20
2018-02-09T00:24:40.696Z,11.80
2018-02-09T00:27:08.232Z,11.47
2018-02-09T00:29:35.673Z,11.30
2018-02-09T00:32:03.239Z,10.77
2018-02-09T00:34:30.636Z,11.70
2018-02-09T00:36:58.009Z,11.00
2018-02-09T00:41:52.720Z,10.67
2018-02-09T00:44:20.263Z,11.27
2018-02-09T00:46:47.695Z,10.55
2018-02-09T00:49:15.343Z,10.87
2018-02-09T00:51:42.732Z,10.50
2018-02-09T00:54:10.324Z,10.57
2018-02-09T00:56:37.679Z,11.03
2018-02-09T00:59:05.370Z,10.70
2018-02-09T01:01:32.719Z,10.93
2018-02-09T01:04:00.211Z,10.27
2018-02-09T01:06:27.664Z,9.67
2018-02-09T01:08:54.917Z,10.03
2018-02-09T01:13:49.791Z,11.23
2018-02-09T01:16:17.347Z,10.33
2018-02-09T01:18:44.714Z,10.03
2018-02-09T01:22:32.653Z,9.60
2018-02-09T01:25:00.245Z,10.50
2018-02-09T01:27:27.695Z,10.37
2018-02-09T01:29:55.388Z,10.00
2018-02-09T01:32:22.716Z,8.93
2018-02-09T01:34:50.221Z,9.60
2018-02-09T01:37:17.666Z,8.60
2018-02-09T01:39:45.232Z,9.33
2018-02-09T01:42:12.672Z,8.45
2018-02-09T01:44:40.235Z,9.23
2018-02-09T01:49:34.694Z,9.43
2018-02-09T01:52:02.218Z,9.30
2018-02-09T01:54:29.730Z,9.10
2018-02-09T01:56:57.315Z,8.60
2018-02-09T01:59:24.756Z,8.40
2018-02-09T02:01:52.405Z,8.13
2018-02-09T02:04:19.780Z,8.50
2018-02-09T02:06:47.413Z,9.03
2018-02-09T02:09:14.777Z,8.80
2018-02-09T02:11:42.644Z,8.53
2018-02-09T02:14:10.238Z,7.93
2018-02-09T02:16:37.723Z,8.05
2018-02-09T02:19:05.592Z,8.23
2018-02-09T02:21:32.742Z,8.63
2018-02-09T02:24:00.324Z,8.73
2018-02-09T02:26:27.746Z,8.10
2018-02-09T02:28:55.633Z,7.97
2018-02-09T02:31:23.019Z,7.83
2018-02-09T02:36:17.784Z,7.77
2018-02-09T02:38:45.707Z,7.90
2018-02-09T02:41:13.400Z,7.33
2018-02-09T02:43:40.741Z,7.50
2018-02-09T02:46:08.289Z,7.63
2018-02-09T02:48:35.680Z,7.93
2018-02-09T02:51:03.198Z,7.77
2018-02-09T02:55:57.801Z,7.23
2018-02-09T02:58:25.488Z,7.23
2018-02-09T03:00:52.716Z,7.23
2018-02-09T03:03:20.432Z,7.00
2018-02-09T03:05:47.757Z,6.93
2018-02-09T03:08:15.518Z,7.37
2018-02-09T03:10:42.748Z,7.13
2018-02-09T03:13:10.407Z,6.97
2018-02-09T03:15:37.766Z,6.97
2018-02-09T03:18:05.393Z,6.77
2018-02-09T03:20:32.715Z,6.80
2018-02-09T03:23:00.255Z,6.53
2018-02-09T03:25:27.687Z,6.77
2018-02-09T03:27:55.185Z,6.50
2018-02-09T03:30:22.574Z,6.57
2018-02-09T03:32:49.714Z,6.10
2018-02-09T03:35:17.388Z,6.10
2018-02-09T03:37:44.737Z,6.03
2018-02-09T03:40:12.345Z,6.50
2018-02-09T03:42:39.774Z,6.65
2018-02-09T03:45:07.362Z,6.93
2018-02-09T03:47:34.752Z,5.90
2018-02-09T03:50:02.412Z,5.47
2018-02-09T03:52:29.759Z,6.17
2018-02-09T03:54:57.438Z,5.97
2018-02-09T03:57:24.750Z,5.83
2018-02-09T03:59:52.364Z,6.00
2018-02-09T04:02:19.776Z,5.63
2018-02-09T04:04:47.561Z,5.80
2018-02-09T04:07:14.727Z,6.27
2018-02-09T04:09:42.398Z,5.67
2018-02-09T04:12:09.761Z,5.80
2018-02-09T04:14:37.572Z,5.80
2018-02-09T04:17:04.815Z,6.10
2018-02-09T04:19:32.646Z,5.83
2018-02-09T04:21:59.961Z,5.77
2018-02-09T04:26:54.727Z,5.27
2018-02-09T04:29:22.249Z,5.20
2018-02-09T04:31:49.717Z,5.30
2018-02-09T04:34:17.222Z,5.97
2018-02-09T04:36:44.693Z,5.37
2018-02-09T04:39:12.347Z,5.37
2018-02-09T04:41:39.712Z,4.87
2018-02-09T04:44:07.257Z,5.00
2018-02-09T04:46:34.675Z,4.77
2018-02-09T04:49:02.234Z,4.80
2018-02-09T04:51:29.694Z,4.97
2018-02-09T04:53:57.236Z,4.80
2018-02-09T04:56:24.696Z,4.70
2018-02-09T04:58:52.385Z,4.63
2018-02-09T05:01:19.730Z,4.67
2018-02-09T05:03:47.371Z,4.90
2018-02-09T05:06:14.712Z,4.83
2018-02-09T05:08:42.377Z,5.00
2018-02-09T05:11:09.742Z,4.30
2018-02-09T05:13:37.388Z,4.47
2018-02-09T05:16:04.701Z,4.80
2018-02-09T05:18:32.355Z,5.00
2018-02-09T05:20:59.725Z,4.40
2018-02-09T05:23:27.492Z,4.70
2018-02-09T05:25:54.699Z,4.47
2018-02-09T05:28:22.377Z,4.40
2018-02-09T05:30:49.692Z,4.80
2018-02-09T05:33:17.246Z,4.33
2018-02-09T05:35:44.730Z,4.10
2018-02-09T05:38:12.324Z,6.97
2018-02-09T05:40:39.687Z,6.97
2018-02-09T05:43:06.915Z,6.67
2018-02-09T05:45:34.630Z,6.60
2018-02-09T05:48:02.046Z,5.97
2018-02-09T05:52:56.763Z,5.77
2018-02-09T05:55:24.350Z,5.53
2018-02-09T06:00:47.717Z,5.67
2018-02-09T06:03:15.349Z,6.33
2018-02-09T06:05:42.688Z,6.20
2018-02-09T06:08:10.181Z,6.87
2018-02-09T06:10:37.665Z,8.00
2018-02-09T06:13:05.278Z,9.07
2018-02-09T06:15:32.719Z,8.93
2018-02-09T06:18:00.350Z,8.73
2018-02-09T06:20:27.707Z,8.47
2018-02-09T06:22:55.397Z,9.17
2018-02-09T06:25:22.700Z,8.27
2018-02-09T06:27:50.353Z,8.40
2018-02-09T06:30:17.694Z,7.63
2018-02-09T06:32:45.220Z,7.80
2018-02-09T06:35:12.709Z,8.60
2018-02-09T06:37:40.258Z,8.33
2018-02-09T06:40:07.672Z,8.43
2018-02-09T06:42:35.348Z,8.03
2018-02-09T06:45:02.804Z,7.53
2018-02-09T06:47:30.741Z,7.07
2018-02-09T06:49:58.377Z,7.63
2018-02-09T06:52:25.984Z,7.40
2018-02-09T06:57:21.418Z,6.80
2018-02-09T06:59:48.735Z,7.17
2018-02-09T07:02:16.376Z,5.90
2018-02-09T07:04:43.786Z,7.47
2018-02-09T07:07:11.678Z,6.43
2018-02-09T07:09:39.379Z,6.70
2018-02-09T07:12:06.777Z,6.47
2018-02-09T07:14:34.742Z,7.03
2018-02-09T07:17:02.374Z,6.67
2018-02-09T07:19:29.808Z,6.63
2018-02-09T07:21:57.710Z,6.57
2018-02-09T07:24:25.397Z,6.13
2018-02-09T07:26:52.799Z,5.53
2018-02-09T07:29:20.712Z,6.33
2018-02-09T07:31:48.410Z,6.50
2018-02-09T07:34:15.808Z,5.93
2018-02-09T07:36:43.682Z,6.27
2018-02-09T07:39:11.358Z,5.93
2018-02-09T07:41:38.741Z,5.70
2018-02-09T07:44:06.664Z,5.50
2018-02-09T07:46:34.225Z,5.23
2018-02-09T07:49:01.671Z,5.80
2018-02-09T07:51:29.412Z,5.70
2018-02-09T07:53:56.759Z,5.50
2018-02-09T07:56:24.537Z,5.83
2018-02-09T07:58:51.751Z,5.10
2018-02-09T08:01:19.342Z,5.87
2018-02-09T08:03:46.676Z,5.73
2018-02-09T08:06:14.269Z,5.73
2018-02-09T08:08:41.689Z,5.53
2018-02-09T08:11:09.362Z,5.53
2018-02-09T08:13:36.710Z,5.00
2018-02-09T08:16:04.237Z,5.67
2018-02-09T08:18:32.491Z,5.40
2018-02-09T08:20:59.720Z,5.00
2018-02-09T08:23:27.314Z,5.50
2018-02-09T08:25:54.713Z,5.63
2018-02-09T08:28:22.308Z,5.03
2018-02-09T08:32:40.658Z,5.10
2018-02-09T08:35:08.177Z,5.50
2018-02-09T08:40:02.754Z,5.27
2018-02-09T08:42:30.391Z,6.37
2018-02-09T08:44:57.682Z,6.10
2018-02-09T08:47:25.367Z,6.27
2018-02-09T08:49:52.690Z,6.10
2018-02-09T08:52:20.377Z,6.17
2018-02-09T08:54:47.760Z,5.80
2018-02-09T08:57:15.401Z,5.70
2018-02-09T08:59:42.726Z,5.57
2018-02-09T09:02:10.341Z,5.43
2018-02-09T09:04:37.703Z,5.30
2018-02-09T09:07:05.219Z,4.50
2018-02-09T09:09:32.665Z,5.17
2018-02-09T09:12:00.208Z,5.50
2018-02-09T09:14:27.673Z,5.10
2018-02-09T09:16:55.183Z,4.47
2018-02-09T09:21:49.684Z,4.83
2018-02-09T09:24:17.224Z,5.50
2018-02-09T09:26:44.655Z,4.83
2018-02-09T09:29:11.966Z,4.47
2018-02-09T09:34:06.699Z,4.23
2018-02-09T09:36:34.253Z,4.97
2018-02-09T09:39:01.670Z,4.40
2018-02-09T09:41:29.194Z,4.27
2018-02-09T09:43:56.652Z,4.40
2018-02-09T09:46:23.924Z,4.60
2018-02-09T09:51:18.685Z,4.23
2018-02-09T09:53:46.229Z,4.43
2018-02-09T09:56:13.649Z,4.33
2018-02-09T09:58:40.921Z,4.73
2018-02-09T10:03:35.715Z,4.07
2018-02-09T10:06:03.269Z,4.37
2018-02-09T10:08:30.672Z,4.43
2018-02-09T10:10:58.231Z,4.27
2018-02-09T10:13:25.693Z,4.20
2018-02-09T10:15:53.321Z,4.13
2018-02-09T10:18:20.718Z,3.80
2018-02-09T10:20:48.239Z,4.23
2018-02-09T10:23:15.684Z,3.83
2018-02-09T10:25:43.202Z,4.00
2018-02-09T10:28:10.704Z,3.65
2018-02-09T10:30:38.194Z,3.97
2018-02-09T10:33:05.684Z,4.40
2018-02-09T10:36:59.732Z,3.67
2018-02-09T10:39:27.393Z,4.23
2018-02-09T10:41:54.712Z,4.07
2018-02-09T10:44:22.190Z,3.67
2018-02-09T10:46:49.606Z,3.70
2018-02-09T10:49:16.764Z,4.40
2018-02-09T10:51:44.587Z,4.10
2018-02-09T10:54:11.715Z,4.07
2018-02-09T10:56:39.412Z,4.17
2018-02-09T10:59:06.746Z,4.70
2018-02-09T11:01:34.512Z,4.77
2018-02-09T11:04:01.713Z,4.53
2018-02-09T11:06:29.261Z,4.60
2018-02-09T11:08:56.729Z,4.97
2018-02-09T11:11:24.216Z,4.70
2018-02-09T11:13:51.642Z,5.50
2018-02-09T11:16:18.939Z,6.33
2018-02-09T11:21:13.706Z,6.20
2018-02-09T11:23:41.362Z,6.63
2018-02-09T11:26:08.660Z,6.17
2018-02-09T11:28:35.924Z,6.70
2018-02-09T11:33:30.670Z,6.20
2018-02-09T11:35:58.268Z,5.70
2018-02-09T11:38:25.644Z,7.33
2018-02-09T11:40:52.811Z,6.57
2018-02-09T11:43:20.523Z,6.63
2018-02-09T11:45:47.701Z,5.80
2018-02-09T11:48:15.059Z,5.17
2018-02-09T11:53:09.720Z,5.20
2018-02-09T11:55:37.185Z,5.30
2018-02-09T11:58:04.617Z,5.40
2018-02-09T12:00:32.209Z,5.23
2018-02-09T12:02:59.594Z,5.00
2018-02-09T12:05:26.720Z,4.77
2018-02-09T12:07:54.234Z,5.00
2018-02-09T12:10:21.642Z,4.00
2018-02-09T12:12:49.236Z,5.47
2018-02-09T12:17:43.742Z,5.10
2018-02-09T12:20:11.287Z,4.87
2018-02-09T12:22:38.730Z,5.20
2018-02-09T12:25:06.205Z,4.97
2018-02-09T12:27:33.614Z,5.10
2018-02-09T12:30:00.836Z,5.57
2018-02-09T12:32:28.553Z,5.20
2018-02-09T12:34:55.700Z,5.40
2018-02-09T12:37:23.264Z,5.40
2018-02-09T12:39:50.697Z,5.00
2018-02-09T12:42:18.334Z,4.87
2018-02-09T12:44:45.737Z,4.70
2018-02-09T12:47:13.406Z,4.07
2018-02-09T12:49:40.711Z,5.03
2018-02-09T12:52:08.264Z,4.40
2018-02-09T12:54:35.664Z,4.77
2018-02-09T12:57:03.274Z,5.20
2018-02-09T13:01:58.223Z,5.10
2018-02-09T13:04:25.720Z,5.60
2018-02-09T13:06:53.406Z,4.83
2018-02-09T13:09:20.774Z,5.10
2018-02-09T13:11:48.574Z,5.20
2018-02-09T13:14:15.780Z,5.77
2018-02-09T13:16:43.484Z,5.23
2018-02-09T13:19:10.714Z,5.00
2018-02-09T13:21:38.437Z,5.37
2018-02-09T13:24:05.794Z,5.43
2018-02-09T13:26:33.657Z,5.70
2018-02-09T13:29:00.886Z,6.10
2018-02-09T13:31:28.634Z,5.80
2018-02-09T13:33:55.814Z,6.23
2018-02-09T13:36:23.496Z,6.40
2018-02-09T13:38:50.746Z,6.53
2018-02-09T13:41:18.541Z,6.17
2018-02-09T13:43:45.685Z,5.33
2018-02-09T13:46:13.231Z,6.07
2018-02-09T13:51:07.762Z,6.20
2018-02-09T13:53:35.362Z,5.50
2018-02-09T13:56:02.763Z,6.07
2018-02-09T13:58:30.496Z,5.17
2018-02-09T14:00:57.775Z,5.67
2018-02-09T14:03:25.637Z,5.80
2018-02-09T14:05:53.213Z,4.90
2018-02-09T14:10:48.331Z,5.70
2018-02-09T14:13:15.752Z,6.00
2018-02-09T14:15:43.641Z,6.00
2018-02-09T14:18:11.195Z,6.23
2018-02-09T14:20:38.731Z,6.00
2018-02-09T14:23:06.328Z,6.43
2018-02-09T14:25:33.756Z,5.60
2018-02-09T14:28:01.430Z,5.27
2018-02-09T14:30:28.716Z,4.87
2018-02-09T14:32:56.379Z,5.13
2018-02-09T14:35:23.784Z,4.97
2018-02-09T14:37:51.626Z,5.00
2018-02-09T14:40:19.213Z,4.53
2018-02-09T14:42:46.679Z,4.73
2018-02-09T14:45:14.326Z,4.70
2018-02-09T14:47:41.706Z,4.87
2018-02-09T14:50:09.390Z,4.87
2018-02-09T14:52:36.725Z,4.90
2018-02-09T14:55:04.600Z,4.57
2018-02-09T14:57:31.797Z,4.27
2018-02-09T14:59:59.639Z,4.27
2018-02-09T15:02:26.830Z,4.63
2018-02-09T15:04:54.505Z,4.27
2018-02-09T15:07:21.694Z,4.67
2018-02-09T15:09:48.992Z,4.10
2018-02-09T15:14:43.672Z,4.27
2018-02-09T15:17:11.212Z,4.07
2018-02-09T15:19:38.666Z,3.93
2018-02-09T15:22:06.197Z,3.80
2018-02-09T15:24:33.639Z,3.70
2018-02-09T15:27:01.181Z,3.60
2018-02-09T15:31:55.791Z,3.80
2018-02-09T15:34:23.610Z,3.67
2018-02-09T15:36:50.982Z,3.80
2018-02-09T15:41:45.746Z,3.20
2018-02-09T15:44:13.343Z,3.90
2018-02-09T15:46:40.746Z,4.00
2018-02-09T15:49:08.314Z,3.47
2018-02-09T15:51:35.577Z,3.40
2018-02-09T15:54:02.716Z,4.30
2018-02-09T15:56:30.380Z,6.53
2018-02-09T15:58:57.713Z,8.00
2018-02-09T16:01:25.342Z,10.03
2018-02-09T16:03:52.701Z,7.97
2018-02-09T16:06:20.225Z,8.20
2018-02-09T16:08:47.668Z,6.90
2018-02-09T16:11:15.199Z,7.47
2018-02-09T16:13:42.665Z,6.63
2018-02-09T16:16:10.077Z,6.27
2018-02-09T16:21:05.589Z,5.80
2018-02-09T16:23:32.728Z,6.33
2018-02-09T16:26:00.216Z,5.70
2018-02-09T16:28:27.717Z,6.17
2018-02-09T16:30:55.292Z,5.73
2018-02-09T16:33:22.686Z,5.60
2018-02-09T16:35:50.193Z,5.47
2018-02-09T16:40:44.756Z,5.00
2018-02-09T16:43:12.404Z,5.13
2018-02-09T16:45:39.780Z,5.00
2018-02-09T16:48:07.361Z,5.20
2018-02-09T16:50:34.718Z,4.67
2018-02-09T16:53:02.383Z,5.23
2018-02-09T16:55:29.714Z,4.83
2018-02-09T16:57:57.345Z,4.30
2018-02-09T17:00:24.693Z,4.33
2018-02-09T17:02:52.055Z,4.63
2018-02-09T17:07:46.775Z,4.73
2018-02-09T17:10:14.418Z,4.10
2018-02-09T17:12:41.710Z,3.90
2018-02-09T17:15:09.237Z,4.30
2018-02-09T17:17:36.676Z,4.05
2018-02-09T17:20:04.228Z,4.53
2018-02-09T17:22:31.699Z,4.70
2018-02-09T17:24:59.245Z,3.87
2018-02-09T17:27:51.686Z,3.93
2018-02-09T17:30:19.361Z,3.90
2018-02-09T17:32:46.695Z,4.50
2018-02-09T17:35:14.186Z,3.80
2018-02-09T17:37:41.631Z,4.70
2018-02-09T17:40:08.802Z,4.20
2018-02-09T17:42:36.572Z,4.03
2018-02-09T17:45:03.698Z,4.10
2018-02-09T17:47:31.047Z,5.67
2018-02-09T17:52:25.723Z,5.13
2018-02-09T17:54:53.581Z,8.47
2018-02-09T17:57:20.684Z,7.50
2018-02-09T17:59:48.059Z,6.90
2018-02-09T18:04:42.711Z,6.20
2018-02-09T18:07:10.392Z,6.47
2018-02-09T18:09:37.731Z,6.17
2018-02-09T18:12:05.384Z,5.97
2018-02-09T18:14:32.716Z,5.87
2018-02-09T18:17:00.238Z,6.27
2018-02-09T18:19:27.650Z,6.23
2018-02-09T18:21:55.241Z,7.20
2018-02-09T18:24:22.646Z,6.10
2018-02-09T18:29:15.636Z,5.50
2018-02-09T18:31:43.573Z,6.43
2018-02-09T18:34:10.768Z,5.80
2018-02-09T18:36:38.379Z,6.23
2018-02-09T18:39:05.701Z,5.90
2018-02-09T18:41:33.044Z,5.80
2018-02-09T18:46:27.924Z,6.47
2018-02-09T18:51:22.731Z,5.23
2018-02-09T18:53:50.338Z,5.10
2018-02-09T18:56:17.760Z,5.57
2018-02-09T18:58:45.413Z,6.00
2018-02-09T19:01:12.740Z,6.53
2018-02-09T19:03:40.379Z,6.77
2018-02-09T19:06:07.703Z,7.60
2018-02-09T19:08:35.350Z,14.07
2018-02-09T19:11:02.775Z,11.75
2018-02-09T19:13:30.581Z,10.77
2018-02-09T19:15:57.807Z,11.20
2018-02-09T19:18:25.654Z,9.77
2018-02-09T19:20:53.360Z,9.37
2018-02-09T19:23:20.762Z,8.87
2018-02-09T19:25:48.687Z,8.93
2018-02-09T19:28:16.341Z,9.00
2018-02-09T19:30:43.724Z,9.17
2018-02-09T19:33:11.323Z,8.50
2018-02-09T19:35:38.703Z,8.63
2018-02-09T19:38:06.404Z,8.27
2018-02-09T19:40:33.716Z,8.73
2018-02-09T19:43:01.436Z,14.60
2018-02-09T19:45:28.774Z,17.10
2018-02-09T19:47:56.564Z,16.00
2018-02-09T19:50:23.688Z,14.40
2018-02-09T19:52:51.244Z,12.60
2018-02-09T19:55:18.690Z,12.33
2018-02-09T19:57:46.326Z,11.20
2018-02-09T20:00:13.726Z,11.50
2018-02-09T20:02:41.188Z,11.03
2018-02-09T20:05:08.663Z,10.87
2018-02-09T20:07:36.060Z,10.40
2018-02-09T20:10:03.630Z,10.00
2018-02-09T20:12:31.195Z,9.53
2018-02-09T20:17:38.655Z,10.40
2018-02-09T20:20:05.907Z,13.97
2018-02-09T20:25:00.753Z,15.23
2018-02-09T20:27:28.259Z,12.53
2018-02-09T20:29:55.700Z,12.23
2018-02-09T20:32:23.248Z,10.00
2018-02-09T20:34:50.661Z,9.53
2018-02-09T20:37:17.892Z,8.77
2018-02-09T20:39:45.641Z,8.00
2018-02-09T20:42:13.195Z,8.30
2018-02-09T20:44:40.649Z,7.97
2018-02-09T20:47:07.920Z,7.80
2018-02-09T20:52:02.699Z,8.07
2018-02-09T20:54:30.225Z,7.20
2018-02-09T20:56:57.659Z,7.40
2018-02-09T20:59:24.910Z,7.03
2018-02-09T21:04:19.778Z,7.27
2018-02-09T21:06:47.412Z,6.97
2018-02-09T21:09:14.730Z,6.40
2018-02-09T21:11:42.209Z,6.60
2018-02-09T21:14:09.681Z,6.43
2018-02-09T21:16:37.187Z,6.87
2018-02-09T21:19:04.667Z,5.60
2018-02-09T21:21:32.347Z,5.90
2018-02-09T21:24:02.648Z,6.13
2018-02-09T21:26:29.884Z,5.83
2018-02-09T21:28:57.595Z,6.77
2018-02-09T21:31:24.779Z,7.10
2018-02-09T21:33:52.486Z,6.87
2018-02-09T21:36:19.689Z,7.40
2018-02-09T21:38:47.355Z,10.87
2018-02-09T21:41:14.733Z,13.40
2018-02-09T21:43:42.241Z,12.90
2018-02-09T21:46:09.649Z,13.15
2018-02-09T21:48:37.216Z,13.17
2018-02-09T21:51:04.687Z,12.37
2018-02-09T21:53:32.263Z,11.90
2018-02-09T21:55:59.719Z,11.03
2018-02-09T21:58:27.393Z,11.37
2018-02-09T22:00:54.793Z,10.50
2018-02-09T22:03:22.652Z,10.97
2018-02-09T22:05:50.214Z,10.73
2018-02-09T22:08:35.770Z,10.20
2018-02-09T22:11:03.620Z,10.47
2018-02-09T22:13:30.925Z,9.50
2018-02-09T22:18:25.903Z,9.40
2018-02-09T22:20:53.686Z,9.43
2018-02-09T22:23:21.332Z,9.67
2018-02-09T22:25:48.763Z,9.87
2018-02-09T22:28:16.619Z,8.73
2018-02-09T22:30:44.191Z,9.40
2018-02-09T22:35:39.243Z,9.83
2018-02-09T22:39:09.747Z,9.00
2018-02-09T22:41:37.404Z,9.97
2018-02-09T22:44:04.752Z,10.93
2018-02-09T22:46:32.623Z,11.50
2018-02-09T22:48:59.894Z,10.97
2018-02-09T22:51:27.600Z,10.83
2018-02-09T22:53:54.787Z,11.10
2018-02-09T22:56:22.426Z,10.50
2018-02-09T22:58:51.911Z,10.17
2018-02-09T23:03:46.700Z,10.17
2018-02-09T23:06:14.329Z,10.90
2018-02-09T23:08:41.668Z,10.63
2018-02-09T23:11:09.262Z,9.60
2018-02-09T23:13:36.657Z,9.50
2018-02-09T23:16:03.908Z,9.70
2018-02-09T23:18:31.597Z,9.67
2018-02-09T23:20:58.737Z,9.23
2018-02-09T23:23:26.564Z,9.40
2018-02-09T23:25:53.724Z,8.97
2018-02-09T23:28:21.369Z,9.03
2018-02-09T23:30:48.774Z,8.23
2018-02-09T23:33:16.411Z,8.17
2018-02-09T23:35:43.720Z,7.30
2018-02-09T23:38:11.360Z,7.33
2018-02-09T23:40:38.687Z,7.23
2018-02-09T23:43:06.226Z,7.67
2018-02-09T23:45:33.755Z,7.53
2018-02-09T23:48:01.363Z,6.93
2018-02-09T23:53:08.942Z,6.50
2018-02-09T23:58:03.906Z,7.00
